createdAt,value
2022-11-09T00:04:41.240Z,47.40
2022-11-09T00:09:45.738Z,47.40
2022-11-09T00:14:48.722Z,47.40
2022-11-09T00:19:51.670Z,47.50
2022-11-09T00:24:55.963Z,47.40
2022-11-09T00:29:58.913Z,47.40
2022-11-09T00:35:01.854Z,47.40
2022-11-09T00:40:07.346Z,47.30
2022-11-09T00:45:10.962Z,47.40
2022-11-09T00:50:13.978Z,47.40
2022-11-09T00:55:21.009Z,47.40
2022-11-09T01:00:25.230Z,47.40
2022-11-09T01:05:28.234Z,47.40
2022-11-09T01:10:32.769Z,47.40
2022-11-09T01:15:35.693Z,47.30
2022-11-09T01:20:42.410Z,47.30
2022-11-09T01:25:46.734Z,47.40
2022-11-09T01:30:49.793Z,47.80
2022-11-09T01:35:52.726Z,47.30
2022-11-09T01:40:57.153Z,47.20
2022-11-09T01:46:04.603Z,47.30
2022-11-09T01:51:11.366Z,47.30
2022-11-09T01:56:16.197Z,47.20
2022-11-09T02:01:19.704Z,47.20
2022-11-09T02:06:25.091Z,47.30
2022-11-09T02:11:30.289Z,47.20
2022-11-09T02:16:33.582Z,47.20
2022-11-09T02:21:38.029Z,47.20
2022-11-09T02:26:45.405Z,47.20
2022-11-09T02:31:53.450Z,47.20
2022-11-09T02:36:57.825Z,47.20
2022-11-09T02:42:05.126Z,47.10
2022-11-09T02:47:10.968Z,47.10
2022-11-09T02:52:15.609Z,47.10
2022-11-09T02:57:18.772Z,47.10
2022-11-09T03:02:21.810Z,47.10
2022-11-09T03:07:26.717Z,47.10
2022-11-09T03:12:32.399Z,47.00
2022-11-09T03:17:36.023Z,46.90
2022-11-09T03:22:40.440Z,46.90
2022-11-09T03:27:43.642Z,46.90
2022-11-09T03:32:50.427Z,46.90
2022-11-09T03:37:55.502Z,46.90
2022-11-09T03:42:59.106Z,46.90
2022-11-09T03:48:02.096Z,47.00
2022-11-09T03:53:06.434Z,46.90
2022-11-09T03:58:12.283Z,47.00
2022-11-09T04:03:15.241Z,47.00
2022-11-09T04:08:19.576Z,46.90
2022-11-09T04:13:22.864Z,46.90
2022-11-09T04:18:25.832Z,46.90
2022-11-09T04:23:30.207Z,46.90
2022-11-09T04:28:33.163Z,47.00
2022-11-09T04:33:36.129Z,47.50
2022-11-09T04:38:40.496Z,47.00
2022-11-09T04:43:43.653Z,47.00
2022-11-09T04:48:47.122Z,47.00
2022-11-09T04:53:51.418Z,47.00
2022-11-09T04:58:54.407Z,47.00
2022-11-09T05:03:57.449Z,47.00
2022-11-09T05:09:03.247Z,47.00
2022-11-09T05:14:06.207Z,47.00
2022-11-09T05:19:09.274Z,47.00
2022-11-09T05:24:13.730Z,47.10
2022-11-09T05:29:17.766Z,47.00
2022-11-09T05:34:20.707Z,47.00
2022-11-09T05:39:25.022Z,47.10
2022-11-09T05:44:27.960Z,47.10
2022-11-09T05:49:30.909Z,47.10
2022-11-09T05:54:35.222Z,47.10
2022-11-09T05:59:38.216Z,47.10
2022-11-09T06:04:41.152Z,47.10
2022-11-09T06:09:45.448Z,47.20
2022-11-09T06:14:48.395Z,47.20
2022-11-09T06:19:51.361Z,47.20
2022-11-09T06:24:55.681Z,47.20
2022-11-09T06:29:58.618Z,47.20
2022-11-09T06:35:01.608Z,47.20
2022-11-09T06:40:06.907Z,47.20
2022-11-09T06:45:11.055Z,47.30
2022-11-09T06:50:14.031Z,47.30
2022-11-09T06:55:18.517Z,47.30
2022-11-09T07:00:22.227Z,47.40
2022-11-09T07:05:25.225Z,47.40
2022-11-09T07:10:29.590Z,47.50
2022-11-09T07:15:32.825Z,47.70
2022-11-09T07:20:36.148Z,47.70
2022-11-09T07:25:40.515Z,47.80
2022-11-09T07:30:43.569Z,47.70
2022-11-09T07:35:47.142Z,47.80
2022-11-09T07:40:51.460Z,48.00
2022-11-09T07:45:54.480Z,48.30
2022-11-09T07:50:57.766Z,48.30
2022-11-09T07:56:04.095Z,48.30
2022-11-09T08:01:09.379Z,48.40
2022-11-09T08:06:18.113Z,48.90
2022-11-09T08:11:22.836Z,49.30
2022-11-09T08:16:25.847Z,48.60
2022-11-09T08:21:28.852Z,48.60
2022-11-09T08:26:33.493Z,48.80
2022-11-09T08:31:36.441Z,48.70
2022-11-09T08:36:39.458Z,48.70
2022-11-09T08:41:43.827Z,48.70
2022-11-09T08:46:46.811Z,48.70
2022-11-09T08:51:49.771Z,48.80
2022-11-09T08:56:56.230Z,48.70
2022-11-09T09:01:59.643Z,48.70
2022-11-09T09:07:02.652Z,48.80
2022-11-09T09:12:08.410Z,48.70
2022-11-09T09:17:11.800Z,48.60
2022-11-09T09:22:14.783Z,48.70
2022-11-09T09:27:19.102Z,48.60
2022-11-09T09:32:22.143Z,48.70
2022-11-09T09:37:25.149Z,48.60
2022-11-09T09:42:35.432Z,48.60
2022-11-09T09:47:49.689Z,48.60
2022-11-09T09:53:18.091Z,48.60
2022-11-09T09:58:26.605Z,48.60
2022-11-09T10:03:29.733Z,48.60
2022-11-09T10:08:44.195Z,48.70
2022-11-09T10:14:02.511Z,48.60
2022-11-09T10:19:25.890Z,48.70
2022-11-09T10:24:48.576Z,48.60
2022-11-09T10:30:00.216Z,48.60
2022-11-09T10:35:07.900Z,48.60
2022-11-09T10:40:18.861Z,48.60
2022-11-09T10:45:30.264Z,48.70
2022-11-09T10:50:35.451Z,48.70
2022-11-09T10:55:38.633Z,48.70
2022-11-09T11:00:57.936Z,48.70
2022-11-09T11:06:02.376Z,48.70
2022-11-09T11:11:38.054Z,48.70
2022-11-09T11:16:44.005Z,49.30
2022-11-09T11:21:47.002Z,48.80
2022-11-09T11:26:58.224Z,48.80
2022-11-09T11:32:02.723Z,48.80
2022-11-09T11:37:20.803Z,48.80
2022-11-09T11:42:45.111Z,48.90
2022-11-09T11:47:58.803Z,48.90
2022-11-09T11:53:14.361Z,48.90
2022-11-09T11:58:29.466Z,48.80
2022-11-09T12:03:50.558Z,48.90
2022-11-09T12:09:09.019Z,49.00
2022-11-09T12:14:21.591Z,49.00
2022-11-09T12:19:49.861Z,49.10
2022-11-09T12:25:01.076Z,49.10
2022-11-09T12:30:10.612Z,49.10
2022-11-09T12:35:23.246Z,49.20
2022-11-09T12:40:29.149Z,49.20
2022-11-09T12:45:34.698Z,49.30
2022-11-09T12:50:39.561Z,49.30
2022-11-09T12:55:48.499Z,49.30
2022-11-09T13:00:54.866Z,49.40
2022-11-09T13:06:22.978Z,49.60
2022-11-09T13:11:38.746Z,49.60
2022-11-09T13:16:41.835Z,49.50
2022-11-09T13:21:46.403Z,49.70
2022-11-09T13:27:00.388Z,49.70
2022-11-09T13:32:23.494Z,49.60
2022-11-09T13:37:48.023Z,49.60
2022-11-09T13:42:58.452Z,49.50
2022-11-09T13:48:01.911Z,49.60
2022-11-09T13:53:30.523Z,49.50
2022-11-09T13:58:37.249Z,49.60
2022-11-09T14:03:40.271Z,49.50
2022-11-09T14:08:44.961Z,49.50
2022-11-09T14:14:22.727Z,49.50
2022-11-09T14:19:32.465Z,50.10
2022-11-09T14:24:39.137Z,49.60
2022-11-09T14:29:56.137Z,49.50
2022-11-09T14:35:28.203Z,49.20
2022-11-09T14:40:33.689Z,49.20
2022-11-09T14:45:36.669Z,49.10
2022-11-09T14:50:39.836Z,49.10
2022-11-09T14:55:44.827Z,49.10
2022-11-09T15:01:08.453Z,49.20
2022-11-09T15:06:14.196Z,49.30
2022-11-09T15:11:18.633Z,49.20
2022-11-09T15:16:23.621Z,49.10
2022-11-09T15:21:36.066Z,49.60
2022-11-09T15:26:43.317Z,48.90
2022-11-09T15:31:58.846Z,49.50
2022-11-09T15:37:01.937Z,48.90
2022-11-09T15:42:06.699Z,48.90
2022-11-09T15:47:22.598Z,48.90
2022-11-09T15:52:25.607Z,49.30
2022-11-09T15:57:32.707Z,50.00
2022-11-09T16:02:35.701Z,49.40
2022-11-09T16:07:38.715Z,50.10
2022-11-09T16:12:46.327Z,50.00
2022-11-09T16:17:50.439Z,50.10
2022-11-09T16:22:53.457Z,50.70
2022-11-09T16:27:59.911Z,50.20
2022-11-09T16:33:02.894Z,49.60
2022-11-09T16:38:05.933Z,49.00
2022-11-09T16:43:10.406Z,48.30
2022-11-09T16:48:14.978Z,48.20
2022-11-09T16:53:20.608Z,48.50
2022-11-09T16:58:27.082Z,48.50
2022-11-09T17:03:30.079Z,48.20
2022-11-09T17:08:33.031Z,47.90
2022-11-09T17:13:37.487Z,47.70
2022-11-09T17:18:40.579Z,47.00
2022-11-09T17:23:44.269Z,46.60
2022-11-09T17:28:49.041Z,46.10
2022-11-09T17:33:54.751Z,45.90
2022-11-09T17:39:00.153Z,45.50
2022-11-09T17:44:04.602Z,45.20
2022-11-09T17:49:10.243Z,45.10
2022-11-09T17:54:14.654Z,45.00
2022-11-09T17:59:18.972Z,45.00
2022-11-09T18:04:21.910Z,45.60
2022-11-09T18:09:40.872Z,44.90
2022-11-09T18:14:46.018Z,44.80
2022-11-09T18:19:48.970Z,44.80
2022-11-09T18:24:51.950Z,44.90
2022-11-09T18:29:56.650Z,44.90
2022-11-09T18:34:59.719Z,44.90
2022-11-09T18:40:02.953Z,45.10
2022-11-09T18:45:09.201Z,45.10
2022-11-09T18:50:12.212Z,45.30
2022-11-09T18:55:15.335Z,45.40
2022-11-09T19:00:20.608Z,45.50
2022-11-09T19:05:23.688Z,45.70
2022-11-09T19:10:26.751Z,45.80
2022-11-09T19:15:32.093Z,46.20
2022-11-09T19:20:35.085Z,46.40
2022-11-09T19:25:38.080Z,46.20
2022-11-09T19:30:42.442Z,46.20
2022-11-09T19:36:01.784Z,46.20
2022-11-09T19:41:08.477Z,46.00
2022-11-09T19:46:12.840Z,45.80
2022-11-09T19:51:16.844Z,45.60
2022-11-09T19:56:20.829Z,45.50
2022-11-09T20:01:25.890Z,45.30
2022-11-09T20:06:29.973Z,45.30
2022-11-09T20:11:52.653Z,45.00
2022-11-09T20:17:02.137Z,45.50
2022-11-09T20:22:06.321Z,44.90
2022-11-09T20:27:09.631Z,45.10
2022-11-09T20:32:14.838Z,45.00
2022-11-09T20:37:20.881Z,44.80
2022-11-09T20:42:23.863Z,44.80
2022-11-09T20:47:49.555Z,44.80
2022-11-09T20:52:51.662Z,44.90
2022-11-09T20:57:54.649Z,45.00
2022-11-09T21:02:59.354Z,45.20
2022-11-09T21:08:02.422Z,45.10
2022-11-09T21:13:05.411Z,45.20
2022-11-09T21:18:10.096Z,45.20
2022-11-09T21:23:31.017Z,45.20
2022-11-09T21:28:51.673Z,45.50
2022-11-09T21:33:56.418Z,45.80
2022-11-09T21:38:59.435Z,45.70
2022-11-09T21:44:02.666Z,46.10
2022-11-09T21:49:07.849Z,46.10
2022-11-09T21:54:11.440Z,46.30
2022-11-09T21:59:14.517Z,46.30
2022-11-09T22:04:19.210Z,45.80
2022-11-09T22:09:22.186Z,46.00
2022-11-09T22:14:42.998Z,45.90
2022-11-09T22:20:04.746Z,45.80
2022-11-09T22:25:09.061Z,46.00
2022-11-09T22:30:12.717Z,46.10
2022-11-09T22:35:17.267Z,46.20
2022-11-09T22:40:20.422Z,46.40
2022-11-09T22:45:23.396Z,46.40
2022-11-09T22:50:27.722Z,46.50
2022-11-09T22:55:30.718Z,47.20
2022-11-09T23:00:33.677Z,46.70
2022-11-09T23:05:38.024Z,46.70
2022-11-09T23:10:41.145Z,46.80
2022-11-09T23:15:44.121Z,46.90
2022-11-09T23:20:49.387Z,47.00
2022-11-09T23:25:56.396Z,47.00
2022-11-09T23:31:01.072Z,47.10
2022-11-09T23:36:07.428Z,47.20
2022-11-09T23:41:12.940Z,47.20
2022-11-09T23:46:16.182Z,47.20
2022-11-09T23:51:20.519Z,47.20
2022-11-09T23:56:23.525Z,47.30
